<?xml version="1.0" encoding="utf-8"?>
<gpx xmlns:xsi="http://www.w3.org/2001/XMLSchema-instance" xmlns:xsd="http://www.w3.org/2001/XMLSchema" version="1.1" creator="Shapelink.com" xmlns="http://www.topografix.com/GPX/1/1" xmlns:gpxtpx="http://www.garmin.com/xmlschemas/TrackPointExtension/v1">
  <metadata>
    <name>Løping 4.93 km, 2012-05-30</name>
    <desc></desc>
    <author><name>Mikael Blom</name></author> 
    <time>2012-05-30T19:01:58Z</time>
  </metadata>
  <trk>
    <name>Løping 4.93 km, 2012-05-30</name>
    <trkseg>
      <trkpt lat="59.846408" lon="17.6491786">
        <ele>3.02124</ele>
        <time>2012-05-30T19:01:58Z</time>
      </trkpt>
      <trkpt lat="59.8463783" lon="17.6491253">
        <ele>2.54065</ele>
        <time>2012-05-30T19:02:01Z</time>
      </trkpt>
      <trkpt lat="59.8463286" lon="17.6490024">
        <ele>2.54065</ele>
        <time>2012-05-30T19:02:05Z</time>
      </trkpt>
      <trkpt lat="59.846297" lon="17.6489111">
        <ele>2.06006</ele>
        <time>2012-05-30T19:02:08Z</time>
      </trkpt>
      <trkpt lat="59.846242" lon="17.6487593">
        <ele>3.98267</ele>
        <time>2012-05-30T19:02:14Z</time>
      </trkpt>
      <trkpt lat="59.8462292" lon="17.6487352">
        <ele>4.46326</ele>
        <time>2012-05-30T19:02:15Z</time>
      </trkpt>
      <trkpt lat="59.8461595" lon="17.6485503">
        <ele>5.42456</ele>
        <time>2012-05-30T19:02:23Z</time>
      </trkpt>
      <trkpt lat="59.8460716" lon="17.6484575">
        <ele>7.34717</ele>
        <time>2012-05-30T19:02:29Z</time>
      </trkpt>
      <trkpt lat="59.8460177" lon="17.6484753">
        <ele>9.2699</ele>
        <time>2012-05-30T19:02:33Z</time>
      </trkpt>
      <trkpt lat="59.8459752" lon="17.6485404">
        <ele>9.75061</ele>
        <time>2012-05-30T19:02:37Z</time>
      </trkpt>
      <trkpt lat="59.8459242" lon="17.6486329">
        <ele>12.1538</ele>
        <time>2012-05-30T19:02:42Z</time>
      </trkpt>
      <trkpt lat="59.8458641" lon="17.6487331">
        <ele>13.1151</ele>
        <time>2012-05-30T19:02:47Z</time>
      </trkpt>
      <trkpt lat="59.84582" lon="17.6488056">
        <ele>14.557</ele>
        <time>2012-05-30T19:02:51Z</time>
      </trkpt>
      <trkpt lat="59.845768" lon="17.6488715">
        <ele>12.6344</ele>
        <time>2012-05-30T19:02:56Z</time>
      </trkpt>
      <trkpt lat="59.8457422" lon="17.6489186">
        <ele>14.0764</ele>
        <time>2012-05-30T19:02:58Z</time>
      </trkpt>
      <trkpt lat="59.8456524" lon="17.6490325">
        <ele>15.5184</ele>
        <time>2012-05-30T19:03:06Z</time>
      </trkpt>
      <trkpt lat="59.8455582" lon="17.6490952">
        <ele>13.5958</ele>
        <time>2012-05-30T19:03:12Z</time>
      </trkpt>
      <trkpt lat="59.8455356" lon="17.649115">
        <ele>13.5958</ele>
        <time>2012-05-30T19:03:14Z</time>
      </trkpt>
      <trkpt lat="59.845468" lon="17.6491844">
        <ele>14.0764</ele>
        <time>2012-05-30T19:03:19Z</time>
      </trkpt>
      <trkpt lat="59.8454323" lon="17.6491988">
        <ele>13.1151</ele>
        <time>2012-05-30T19:03:21Z</time>
      </trkpt>
      <trkpt lat="59.8453465" lon="17.6493326">
        <ele>16.4797</ele>
        <time>2012-05-30T19:03:29Z</time>
      </trkpt>
      <trkpt lat="59.845332" lon="17.6493677">
        <ele>17.4412</ele>
        <time>2012-05-30T19:03:31Z</time>
      </trkpt>
      <trkpt lat="59.8452335" lon="17.6494393">
        <ele>15.999</ele>
        <time>2012-05-30T19:03:37Z</time>
      </trkpt>
      <trkpt lat="59.8451154" lon="17.6495649">
        <ele>12.1538</ele>
        <time>2012-05-30T19:03:45Z</time>
      </trkpt>
      <trkpt lat="59.845031" lon="17.6496006">
        <ele>7.82788</ele>
        <time>2012-05-30T19:03:50Z</time>
      </trkpt>
      <trkpt lat="59.8449466" lon="17.6496688">
        <ele>6.38586</ele>
        <time>2012-05-30T19:03:55Z</time>
      </trkpt>
      <trkpt lat="59.8448783" lon="17.6498039">
        <ele>5.90527</ele>
        <time>2012-05-30T19:04:00Z</time>
      </trkpt>
      <trkpt lat="59.8448096" lon="17.6499155">
        <ele>6.86646</ele>
        <time>2012-05-30T19:04:06Z</time>
      </trkpt>
      <trkpt lat="59.8447425" lon="17.6500138">
        <ele>10.2312</ele>
        <time>2012-05-30T19:04:12Z</time>
      </trkpt>
      <trkpt lat="59.8446648" lon="17.6500949">
        <ele>10.7118</ele>
        <time>2012-05-30T19:04:17Z</time>
      </trkpt>
      <trkpt lat="59.8446477" lon="17.6501021">
        <ele>10.7118</ele>
        <time>2012-05-30T19:04:18Z</time>
      </trkpt>
      <trkpt lat="59.8445489" lon="17.6502233">
        <ele>11.1925</ele>
        <time>2012-05-30T19:04:25Z</time>
      </trkpt>
      <trkpt lat="59.8445292" lon="17.6502498">
        <ele>11.6732</ele>
        <time>2012-05-30T19:04:26Z</time>
      </trkpt>
      <trkpt lat="59.8444384" lon="17.6503642">
        <ele>11.1925</ele>
        <time>2012-05-30T19:04:31Z</time>
      </trkpt>
      <trkpt lat="59.8443038" lon="17.6505268">
        <ele>9.75061</ele>
        <time>2012-05-30T19:04:38Z</time>
      </trkpt>
      <trkpt lat="59.8442125" lon="17.6506571">
        <ele>9.75061</ele>
        <time>2012-05-30T19:04:44Z</time>
      </trkpt>
      <trkpt lat="59.8441846" lon="17.6507592">
        <ele>10.2312</ele>
        <time>2012-05-30T19:04:47Z</time>
      </trkpt>
      <trkpt lat="59.8441587" lon="17.6507877">
        <ele>8.78918</ele>
        <time>2012-05-30T19:04:48Z</time>
      </trkpt>
      <trkpt lat="59.8440322" lon="17.6509688">
        <ele>6.38586</ele>
        <time>2012-05-30T19:04:53Z</time>
      </trkpt>
      <trkpt lat="59.8439199" lon="17.6511144">
        <ele>5.90527</ele>
        <time>2012-05-30T19:04:57Z</time>
      </trkpt>
      <trkpt lat="59.8438023" lon="17.6512693">
        <ele>5.90527</ele>
        <time>2012-05-30T19:05:02Z</time>
      </trkpt>
      <trkpt lat="59.8436718" lon="17.6514509">
        <ele>7.34717</ele>
        <time>2012-05-30T19:05:07Z</time>
      </trkpt>
      <trkpt lat="59.8435951" lon="17.6515554">
        <ele>7.82788</ele>
        <time>2012-05-30T19:05:11Z</time>
      </trkpt>
      <trkpt lat="59.8435012" lon="17.6516753">
        <ele>7.82788</ele>
        <time>2012-05-30T19:05:16Z</time>
      </trkpt>
      <trkpt lat="59.8433822" lon="17.6517731">
        <ele>5.42456</ele>
        <time>2012-05-30T19:05:21Z</time>
      </trkpt>
      <trkpt lat="59.8433034" lon="17.6518324">
        <ele>4.94385</ele>
        <time>2012-05-30T19:05:25Z</time>
      </trkpt>
      <trkpt lat="59.8432281" lon="17.6519058">
        <ele>3.98267</ele>
        <time>2012-05-30T19:05:28Z</time>
      </trkpt>
      <trkpt lat="59.8431074" lon="17.6519665">
        <ele>5.90527</ele>
        <time>2012-05-30T19:05:34Z</time>
      </trkpt>
      <trkpt lat="59.8430211" lon="17.6520308">
        <ele>6.38586</ele>
        <time>2012-05-30T19:05:39Z</time>
      </trkpt>
      <trkpt lat="59.8428956" lon="17.6521028">
        <ele>5.90527</ele>
        <time>2012-05-30T19:05:44Z</time>
      </trkpt>
      <trkpt lat="59.8428248" lon="17.6521359">
        <ele>5.42456</ele>
        <time>2012-05-30T19:05:47Z</time>
      </trkpt>
      <trkpt lat="59.8427088" lon="17.6522276">
        <ele>5.90527</ele>
        <time>2012-05-30T19:05:52Z</time>
      </trkpt>
      <trkpt lat="59.8426265" lon="17.6522396">
        <ele>6.38586</ele>
        <time>2012-05-30T19:05:56Z</time>
      </trkpt>
      <trkpt lat="59.8425098" lon="17.6522907">
        <ele>6.38586</ele>
        <time>2012-05-30T19:06:01Z</time>
      </trkpt>
      <trkpt lat="59.8424067" lon="17.6523106">
        <ele>5.42456</ele>
        <time>2012-05-30T19:06:05Z</time>
      </trkpt>
      <trkpt lat="59.842297" lon="17.6523893">
        <ele>7.34717</ele>
        <time>2012-05-30T19:06:10Z</time>
      </trkpt>
      <trkpt lat="59.8421844" lon="17.6524394">
        <ele>5.42456</ele>
        <time>2012-05-30T19:06:15Z</time>
      </trkpt>
      <trkpt lat="59.842046" lon="17.6525574">
        <ele>4.94385</ele>
        <time>2012-05-30T19:06:22Z</time>
      </trkpt>
      <trkpt lat="59.8419779" lon="17.6527094">
        <ele>8.30859</ele>
        <time>2012-05-30T19:06:26Z</time>
      </trkpt>
      <trkpt lat="59.8418404" lon="17.6529036">
        <ele>8.78918</ele>
        <time>2012-05-30T19:06:32Z</time>
      </trkpt>
      <trkpt lat="59.8417189" lon="17.6530435">
        <ele>6.86646</ele>
        <time>2012-05-30T19:06:37Z</time>
      </trkpt>
      <trkpt lat="59.8416271" lon="17.6531358">
        <ele>6.86646</ele>
        <time>2012-05-30T19:06:41Z</time>
      </trkpt>
      <trkpt lat="59.8415275" lon="17.6532301">
        <ele>5.42456</ele>
        <time>2012-05-30T19:06:45Z</time>
      </trkpt>
      <trkpt lat="59.8413884" lon="17.6533122">
        <ele>4.94385</ele>
        <time>2012-05-30T19:06:49Z</time>
      </trkpt>
      <trkpt lat="59.8412654" lon="17.6533645">
        <ele>5.90527</ele>
        <time>2012-05-30T19:06:54Z</time>
      </trkpt>
      <trkpt lat="59.8412076" lon="17.6533491">
        <ele>5.90527</ele>
        <time>2012-05-30T19:06:57Z</time>
      </trkpt>
      <trkpt lat="59.8410613" lon="17.6533631">
        <ele>4.94385</ele>
        <time>2012-05-30T19:07:02Z</time>
      </trkpt>
      <trkpt lat="59.8410149" lon="17.653313">
        <ele>3.02124</ele>
        <time>2012-05-30T19:07:06Z</time>
      </trkpt>
      <trkpt lat="59.8409067" lon="17.6533444">
        <ele>0.137451</ele>
        <time>2012-05-30T19:07:12Z</time>
      </trkpt>
      <trkpt lat="59.8407735" lon="17.6533707">
        <ele>1.09863</ele>
        <time>2012-05-30T19:07:17Z</time>
      </trkpt>
      <trkpt lat="59.840641" lon="17.6534201">
        <ele>5.42456</ele>
        <time>2012-05-30T19:07:22Z</time>
      </trkpt>
      <trkpt lat="59.8405425" lon="17.6534385">
        <ele>4.94385</ele>
        <time>2012-05-30T19:07:26Z</time>
      </trkpt>
      <trkpt lat="59.8404346" lon="17.6534776">
        <ele>7.82788</ele>
        <time>2012-05-30T19:07:31Z</time>
      </trkpt>
      <trkpt lat="59.8403368" lon="17.6535103">
        <ele>7.82788</ele>
        <time>2012-05-30T19:07:36Z</time>
      </trkpt>
      <trkpt lat="59.840253" lon="17.6535236">
        <ele>7.82788</ele>
        <time>2012-05-30T19:07:40Z</time>
      </trkpt>
      <trkpt lat="59.8401551" lon="17.6535846">
        <ele>6.86646</ele>
        <time>2012-05-30T19:07:45Z</time>
      </trkpt>
      <trkpt lat="59.8400694" lon="17.6535777">
        <ele>5.42456</ele>
        <time>2012-05-30T19:07:49Z</time>
      </trkpt>
      <trkpt lat="59.8399528" lon="17.6536164">
        <ele>4.46326</ele>
        <time>2012-05-30T19:07:53Z</time>
      </trkpt>
      <trkpt lat="59.8399327" lon="17.6536257">
        <ele>4.94385</ele>
        <time>2012-05-30T19:07:54Z</time>
      </trkpt>
      <trkpt lat="59.8397885" lon="17.653652">
        <ele>4.46326</ele>
        <time>2012-05-30T19:07:59Z</time>
      </trkpt>
      <trkpt lat="59.8396705" lon="17.6536662">
        <ele>5.42456</ele>
        <time>2012-05-30T19:08:03Z</time>
      </trkpt>
      <trkpt lat="59.8395478" lon="17.6537216">
        <ele>12.1538</ele>
        <time>2012-05-30T19:08:07Z</time>
      </trkpt>
      <trkpt lat="59.839407" lon="17.6538014">
        <ele>13.1151</ele>
        <time>2012-05-30T19:08:12Z</time>
      </trkpt>
      <trkpt lat="59.8393179" lon="17.653892">
        <ele>11.6732</ele>
        <time>2012-05-30T19:08:17Z</time>
      </trkpt>
      <trkpt lat="59.839199" lon="17.6539048">
        <ele>8.78918</ele>
        <time>2012-05-30T19:08:22Z</time>
      </trkpt>
      <trkpt lat="59.8391221" lon="17.6538858">
        <ele>8.78918</ele>
        <time>2012-05-30T19:08:26Z</time>
      </trkpt>
      <trkpt lat="59.8390008" lon="17.6538032">
        <ele>9.2699</ele>
        <time>2012-05-30T19:08:32Z</time>
      </trkpt>
      <trkpt lat="59.8389499" lon="17.653778">
        <ele>10.7118</ele>
        <time>2012-05-30T19:08:35Z</time>
      </trkpt>
      <trkpt lat="59.8388184" lon="17.6537185">
        <ele>13.5958</ele>
        <time>2012-05-30T19:08:41Z</time>
      </trkpt>
      <trkpt lat="59.8387363" lon="17.6536971">
        <ele>15.999</ele>
        <time>2012-05-30T19:08:45Z</time>
      </trkpt>
      <trkpt lat="59.8386396" lon="17.6536889">
        <ele>17.9218</ele>
        <time>2012-05-30T19:08:49Z</time>
      </trkpt>
      <trkpt lat="59.8385542" lon="17.6536874">
        <ele>18.8831</ele>
        <time>2012-05-30T19:08:53Z</time>
      </trkpt>
      <trkpt lat="59.8384202" lon="17.6537459">
        <ele>20.8057</ele>
        <time>2012-05-30T19:08:58Z</time>
      </trkpt>
      <trkpt lat="59.8383052" lon="17.6537976">
        <ele>21.2864</ele>
        <time>2012-05-30T19:09:02Z</time>
      </trkpt>
      <trkpt lat="59.8382089" lon="17.653826">
        <ele>19.8444</ele>
        <time>2012-05-30T19:09:06Z</time>
      </trkpt>
      <trkpt lat="59.8380786" lon="17.6538608">
        <ele>17.9218</ele>
        <time>2012-05-30T19:09:11Z</time>
      </trkpt>
      <trkpt lat="59.8379634" lon="17.6538214">
        <ele>17.4412</ele>
        <time>2012-05-30T19:09:16Z</time>
      </trkpt>
      <trkpt lat="59.8378667" lon="17.6537422">
        <ele>18.4023</ele>
        <time>2012-05-30T19:09:21Z</time>
      </trkpt>
      <trkpt lat="59.8377369" lon="17.6537028">
        <ele>17.9218</ele>
        <time>2012-05-30T19:09:26Z</time>
      </trkpt>
      <trkpt lat="59.8376741" lon="17.6536787">
        <ele>17.9218</ele>
        <time>2012-05-30T19:09:29Z</time>
      </trkpt>
      <trkpt lat="59.8376354" lon="17.6536395">
        <ele>18.8831</ele>
        <time>2012-05-30T19:09:32Z</time>
      </trkpt>
      <trkpt lat="59.8374878" lon="17.6535942">
        <ele>19.3638</ele>
        <time>2012-05-30T19:09:37Z</time>
      </trkpt>
      <trkpt lat="59.8373909" lon="17.6535153">
        <ele>19.8444</ele>
        <time>2012-05-30T19:09:42Z</time>
      </trkpt>
      <trkpt lat="59.8373033" lon="17.6534693">
        <ele>20.8057</ele>
        <time>2012-05-30T19:09:47Z</time>
      </trkpt>
      <trkpt lat="59.8371855" lon="17.6534185">
        <ele>21.2864</ele>
        <time>2012-05-30T19:09:52Z</time>
      </trkpt>
      <trkpt lat="59.8370748" lon="17.6533704">
        <ele>21.2864</ele>
        <time>2012-05-30T19:09:57Z</time>
      </trkpt>
      <trkpt lat="59.8369755" lon="17.6533415">
        <ele>22.7283</ele>
        <time>2012-05-30T19:10:02Z</time>
      </trkpt>
      <trkpt lat="59.8368378" lon="17.6532646">
        <ele>23.6896</ele>
        <time>2012-05-30T19:10:08Z</time>
      </trkpt>
      <trkpt lat="59.8367312" lon="17.653205">
        <ele>25.1317</ele>
        <time>2012-05-30T19:10:13Z</time>
      </trkpt>
      <trkpt lat="59.8366122" lon="17.6531544">
        <ele>25.1317</ele>
        <time>2012-05-30T19:10:18Z</time>
      </trkpt>
      <trkpt lat="59.836534" lon="17.653127">
        <ele>25.1317</ele>
        <time>2012-05-30T19:10:21Z</time>
      </trkpt>
      <trkpt lat="59.8364415" lon="17.6530824">
        <ele>24.1703</ele>
        <time>2012-05-30T19:10:26Z</time>
      </trkpt>
      <trkpt lat="59.8363337" lon="17.6530189">
        <ele>21.767</ele>
        <time>2012-05-30T19:10:33Z</time>
      </trkpt>
      <trkpt lat="59.8362565" lon="17.6529633">
        <ele>21.767</ele>
        <time>2012-05-30T19:10:39Z</time>
      </trkpt>
      <trkpt lat="59.8361771" lon="17.6529787">
        <ele>20.325</ele>
        <time>2012-05-30T19:10:43Z</time>
      </trkpt>
      <trkpt lat="59.8360461" lon="17.6528761">
        <ele>19.3638</ele>
        <time>2012-05-30T19:10:48Z</time>
      </trkpt>
      <trkpt lat="59.8359429" lon="17.6527841">
        <ele>17.4412</ele>
        <time>2012-05-30T19:10:53Z</time>
      </trkpt>
      <trkpt lat="59.8358514" lon="17.6527424">
        <ele>17.9218</ele>
        <time>2012-05-30T19:10:57Z</time>
      </trkpt>
      <trkpt lat="59.835827" lon="17.6527257">
        <ele>17.9218</ele>
        <time>2012-05-30T19:10:58Z</time>
      </trkpt>
      <trkpt lat="59.8356706" lon="17.6527176">
        <ele>17.4412</ele>
        <time>2012-05-30T19:11:04Z</time>
      </trkpt>
      <trkpt lat="59.8356153" lon="17.6527338">
        <ele>17.9218</ele>
        <time>2012-05-30T19:11:06Z</time>
      </trkpt>
      <trkpt lat="59.8355196" lon="17.6527569">
        <ele>18.4023</ele>
        <time>2012-05-30T19:11:10Z</time>
      </trkpt>
      <trkpt lat="59.8353862" lon="17.6527938">
        <ele>18.4023</ele>
        <time>2012-05-30T19:11:15Z</time>
      </trkpt>
      <trkpt lat="59.8352396" lon="17.6528154">
        <ele>17.9218</ele>
        <time>2012-05-30T19:11:20Z</time>
      </trkpt>
      <trkpt lat="59.8351136" lon="17.6528625">
        <ele>18.4023</ele>
        <time>2012-05-30T19:11:24Z</time>
      </trkpt>
      <trkpt lat="59.8350009" lon="17.652854">
        <ele>17.4412</ele>
        <time>2012-05-30T19:11:28Z</time>
      </trkpt>
      <trkpt lat="59.834902" lon="17.6528627">
        <ele>16.4797</ele>
        <time>2012-05-30T19:11:31Z</time>
      </trkpt>
      <trkpt lat="59.8348001" lon="17.6528678">
        <ele>15.5184</ele>
        <time>2012-05-30T19:11:35Z</time>
      </trkpt>
      <trkpt lat="59.834704" lon="17.6528863">
        <ele>14.557</ele>
        <time>2012-05-30T19:11:39Z</time>
      </trkpt>
      <trkpt lat="59.8346118" lon="17.6529079">
        <ele>12.6344</ele>
        <time>2012-05-30T19:11:43Z</time>
      </trkpt>
      <trkpt lat="59.834505" lon="17.6529358">
        <ele>11.1925</ele>
        <time>2012-05-30T19:11:47Z</time>
      </trkpt>
      <trkpt lat="59.8344341" lon="17.65295">
        <ele>11.1925</ele>
        <time>2012-05-30T19:11:51Z</time>
      </trkpt>
      <trkpt lat="59.8343201" lon="17.6529342">
        <ele>12.6344</ele>
        <time>2012-05-30T19:11:57Z</time>
      </trkpt>
      <trkpt lat="59.8342353" lon="17.6529151">
        <ele>14.557</ele>
        <time>2012-05-30T19:12:02Z</time>
      </trkpt>
      <trkpt lat="59.8341196" lon="17.6528683">
        <ele>15.999</ele>
        <time>2012-05-30T19:12:07Z</time>
      </trkpt>
      <trkpt lat="59.8340062" lon="17.6527898">
        <ele>16.9604</ele>
        <time>2012-05-30T19:12:12Z</time>
      </trkpt>
      <trkpt lat="59.8339181" lon="17.6527753">
        <ele>17.9218</ele>
        <time>2012-05-30T19:12:16Z</time>
      </trkpt>
      <trkpt lat="59.8338143" lon="17.6527726">
        <ele>18.8831</ele>
        <time>2012-05-30T19:12:21Z</time>
      </trkpt>
      <trkpt lat="59.8337435" lon="17.6527695">
        <ele>20.8057</ele>
        <time>2012-05-30T19:12:24Z</time>
      </trkpt>
      <trkpt lat="59.833655" lon="17.6527494">
        <ele>22.7283</ele>
        <time>2012-05-30T19:12:29Z</time>
      </trkpt>
      <trkpt lat="59.8335332" lon="17.6527646">
        <ele>26.0929</ele>
        <time>2012-05-30T19:12:35Z</time>
      </trkpt>
      <trkpt lat="59.8334553" lon="17.6527801">
        <ele>27.5349</ele>
        <time>2012-05-30T19:12:39Z</time>
      </trkpt>
      <trkpt lat="59.83344" lon="17.652785">
        <ele>27.0543</ele>
        <time>2012-05-30T19:12:40Z</time>
      </trkpt>
      <trkpt lat="59.8333274" lon="17.6528157">
        <ele>25.1317</ele>
        <time>2012-05-30T19:12:46Z</time>
      </trkpt>
      <trkpt lat="59.8331913" lon="17.6528814">
        <ele>23.6896</ele>
        <time>2012-05-30T19:12:51Z</time>
      </trkpt>
      <trkpt lat="59.8331562" lon="17.6529056">
        <ele>24.651</ele>
        <time>2012-05-30T19:12:53Z</time>
      </trkpt>
      <trkpt lat="59.8330339" lon="17.6529612">
        <ele>23.6896</ele>
        <time>2012-05-30T19:12:58Z</time>
      </trkpt>
      <trkpt lat="59.8329121" lon="17.6530294">
        <ele>26.5736</ele>
        <time>2012-05-30T19:13:03Z</time>
      </trkpt>
      <trkpt lat="59.832817" lon="17.6530645">
        <ele>27.0543</ele>
        <time>2012-05-30T19:13:08Z</time>
      </trkpt>
      <trkpt lat="59.8327894" lon="17.6530646">
        <ele>28.0155</ele>
        <time>2012-05-30T19:13:12Z</time>
      </trkpt>
      <trkpt lat="59.8326926" lon="17.6531424">
        <ele>28.4962</ele>
        <time>2012-05-30T19:13:17Z</time>
      </trkpt>
      <trkpt lat="59.8326121" lon="17.6532163">
        <ele>28.0155</ele>
        <time>2012-05-30T19:13:22Z</time>
      </trkpt>
      <trkpt lat="59.8325894" lon="17.6532355">
        <ele>28.0155</ele>
        <time>2012-05-30T19:13:23Z</time>
      </trkpt>
      <trkpt lat="59.8324238" lon="17.6533393">
        <ele>27.0543</ele>
        <time>2012-05-30T19:13:30Z</time>
      </trkpt>
      <trkpt lat="59.8323413" lon="17.6533847">
        <ele>25.1317</ele>
        <time>2012-05-30T19:13:33Z</time>
      </trkpt>
      <trkpt lat="59.8322116" lon="17.6535315">
        <ele>25.6123</ele>
        <time>2012-05-30T19:13:39Z</time>
      </trkpt>
      <trkpt lat="59.8321169" lon="17.6536027">
        <ele>25.1317</ele>
        <time>2012-05-30T19:13:44Z</time>
      </trkpt>
      <trkpt lat="59.8320186" lon="17.6536958">
        <ele>27.0543</ele>
        <time>2012-05-30T19:13:49Z</time>
      </trkpt>
      <trkpt lat="59.8319559" lon="17.6537846">
        <ele>28.0155</ele>
        <time>2012-05-30T19:13:53Z</time>
      </trkpt>
      <trkpt lat="59.8319367" lon="17.6538091">
        <ele>28.4962</ele>
        <time>2012-05-30T19:13:54Z</time>
      </trkpt>
      <trkpt lat="59.8318072" lon="17.6538797">
        <ele>28.0155</ele>
        <time>2012-05-30T19:14:00Z</time>
      </trkpt>
      <trkpt lat="59.831676" lon="17.6540407">
        <ele>30.4188</ele>
        <time>2012-05-30T19:14:05Z</time>
      </trkpt>
      <trkpt lat="59.8315888" lon="17.6542478">
        <ele>34.2642</ele>
        <time>2012-05-30T19:14:10Z</time>
      </trkpt>
      <trkpt lat="59.8315366" lon="17.6544602">
        <ele>34.2642</ele>
        <time>2012-05-30T19:14:15Z</time>
      </trkpt>
      <trkpt lat="59.8314931" lon="17.6547141">
        <ele>33.7834</ele>
        <time>2012-05-30T19:14:21Z</time>
      </trkpt>
      <trkpt lat="59.8314669" lon="17.6549053">
        <ele>32.8223</ele>
        <time>2012-05-30T19:14:25Z</time>
      </trkpt>
      <trkpt lat="59.8314639" lon="17.6550828">
        <ele>29.9381</ele>
        <time>2012-05-30T19:14:29Z</time>
      </trkpt>
      <trkpt lat="59.8314903" lon="17.6553238">
        <ele>27.0543</ele>
        <time>2012-05-30T19:14:34Z</time>
      </trkpt>
      <trkpt lat="59.8314971" lon="17.6553992">
        <ele>25.6123</ele>
        <time>2012-05-30T19:14:36Z</time>
      </trkpt>
      <trkpt lat="59.8315115" lon="17.6556144">
        <ele>26.0929</ele>
        <time>2012-05-30T19:14:41Z</time>
      </trkpt>
      <trkpt lat="59.8315383" lon="17.6559111">
        <ele>23.6896</ele>
        <time>2012-05-30T19:14:48Z</time>
      </trkpt>
      <trkpt lat="59.8315586" lon="17.6561638">
        <ele>21.767</ele>
        <time>2012-05-30T19:14:53Z</time>
      </trkpt>
      <trkpt lat="59.831556" lon="17.6563589">
        <ele>21.767</ele>
        <time>2012-05-30T19:14:57Z</time>
      </trkpt>
      <trkpt lat="59.8315596" lon="17.6564018">
        <ele>21.2864</ele>
        <time>2012-05-30T19:14:58Z</time>
      </trkpt>
      <trkpt lat="59.8315674" lon="17.6566064">
        <ele>20.325</ele>
        <time>2012-05-30T19:15:03Z</time>
      </trkpt>
      <trkpt lat="59.8316004" lon="17.6567748">
        <ele>20.325</ele>
        <time>2012-05-30T19:15:07Z</time>
      </trkpt>
      <trkpt lat="59.8316592" lon="17.6569408">
        <ele>17.4412</ele>
        <time>2012-05-30T19:15:12Z</time>
      </trkpt>
      <trkpt lat="59.8317083" lon="17.6570405">
        <ele>14.557</ele>
        <time>2012-05-30T19:15:16Z</time>
      </trkpt>
      <trkpt lat="59.831776" lon="17.6571571">
        <ele>11.6732</ele>
        <time>2012-05-30T19:15:21Z</time>
      </trkpt>
      <trkpt lat="59.8318434" lon="17.6572953">
        <ele>11.1925</ele>
        <time>2012-05-30T19:15:25Z</time>
      </trkpt>
      <trkpt lat="59.831931" lon="17.6575065">
        <ele>11.1925</ele>
        <time>2012-05-30T19:15:30Z</time>
      </trkpt>
      <trkpt lat="59.8320309" lon="17.6576557">
        <ele>13.5958</ele>
        <time>2012-05-30T19:15:34Z</time>
      </trkpt>
      <trkpt lat="59.8321101" lon="17.6578268">
        <ele>13.1151</ele>
        <time>2012-05-30T19:15:39Z</time>
      </trkpt>
      <trkpt lat="59.832171" lon="17.658023">
        <ele>10.7118</ele>
        <time>2012-05-30T19:15:43Z</time>
      </trkpt>
      <trkpt lat="59.8322413" lon="17.6582526">
        <ele>8.78918</ele>
        <time>2012-05-30T19:15:48Z</time>
      </trkpt>
      <trkpt lat="59.832324" lon="17.6584614">
        <ele>7.82788</ele>
        <time>2012-05-30T19:15:53Z</time>
      </trkpt>
      <trkpt lat="59.8323728" lon="17.6585963">
        <ele>6.86646</ele>
        <time>2012-05-30T19:15:56Z</time>
      </trkpt>
      <trkpt lat="59.8324859" lon="17.6588337">
        <ele>4.94385</ele>
        <time>2012-05-30T19:16:02Z</time>
      </trkpt>
      <trkpt lat="59.8325869" lon="17.6590425">
        <ele>7.82788</ele>
        <time>2012-05-30T19:16:07Z</time>
      </trkpt>
      <trkpt lat="59.8326937" lon="17.6591648">
        <ele>9.75061</ele>
        <time>2012-05-30T19:16:12Z</time>
      </trkpt>
      <trkpt lat="59.8327862" lon="17.6590931">
        <ele>7.34717</ele>
        <time>2012-05-30T19:16:16Z</time>
      </trkpt>
      <trkpt lat="59.8329184" lon="17.6589691">
        <ele>5.90527</ele>
        <time>2012-05-30T19:16:22Z</time>
      </trkpt>
      <trkpt lat="59.833067" lon="17.6589203">
        <ele>8.30859</ele>
        <time>2012-05-30T19:16:28Z</time>
      </trkpt>
      <trkpt lat="59.833202" lon="17.658937">
        <ele>10.2312</ele>
        <time>2012-05-30T19:16:34Z</time>
      </trkpt>
      <trkpt lat="59.8333046" lon="17.6589194">
        <ele>11.6732</ele>
        <time>2012-05-30T19:16:38Z</time>
      </trkpt>
      <trkpt lat="59.8333896" lon="17.6588944">
        <ele>12.6344</ele>
        <time>2012-05-30T19:16:43Z</time>
      </trkpt>
      <trkpt lat="59.8335352" lon="17.6587718">
        <ele>14.557</ele>
        <time>2012-05-30T19:16:49Z</time>
      </trkpt>
      <trkpt lat="59.8335975" lon="17.6587036">
        <ele>15.5184</ele>
        <time>2012-05-30T19:16:52Z</time>
      </trkpt>
      <trkpt lat="59.8337406" lon="17.6585764">
        <ele>15.0377</ele>
        <time>2012-05-30T19:16:58Z</time>
      </trkpt>
      <trkpt lat="59.8338423" lon="17.658513">
        <ele>14.0764</ele>
        <time>2012-05-30T19:17:02Z</time>
      </trkpt>
      <trkpt lat="59.83396" lon="17.6584509">
        <ele>14.0764</ele>
        <time>2012-05-30T19:17:07Z</time>
      </trkpt>
      <trkpt lat="59.8340827" lon="17.658412">
        <ele>13.1151</ele>
        <time>2012-05-30T19:17:12Z</time>
      </trkpt>
      <trkpt lat="59.8342215" lon="17.6583522">
        <ele>11.1925</ele>
        <time>2012-05-30T19:17:18Z</time>
      </trkpt>
      <trkpt lat="59.8343215" lon="17.6583161">
        <ele>9.75061</ele>
        <time>2012-05-30T19:17:23Z</time>
      </trkpt>
      <trkpt lat="59.8344082" lon="17.6582624">
        <ele>7.82788</ele>
        <time>2012-05-30T19:17:27Z</time>
      </trkpt>
      <trkpt lat="59.8345118" lon="17.6582401">
        <ele>7.82788</ele>
        <time>2012-05-30T19:17:31Z</time>
      </trkpt>
      <trkpt lat="59.8346307" lon="17.6581449">
        <ele>7.34717</ele>
        <time>2012-05-30T19:17:36Z</time>
      </trkpt>
      <trkpt lat="59.8347268" lon="17.6580926">
        <ele>6.86646</ele>
        <time>2012-05-30T19:17:40Z</time>
      </trkpt>
      <trkpt lat="59.834881" lon="17.6580682">
        <ele>6.38586</ele>
        <time>2012-05-30T19:17:46Z</time>
      </trkpt>
      <trkpt lat="59.8350257" lon="17.6580146">
        <ele>6.86646</ele>
        <time>2012-05-30T19:17:52Z</time>
      </trkpt>
      <trkpt lat="59.8350886" lon="17.6579791">
        <ele>6.86646</ele>
        <time>2012-05-30T19:17:55Z</time>
      </trkpt>
      <trkpt lat="59.8352257" lon="17.657933">
        <ele>7.34717</ele>
        <time>2012-05-30T19:18:01Z</time>
      </trkpt>
      <trkpt lat="59.8353191" lon="17.6579122">
        <ele>7.82788</ele>
        <time>2012-05-30T19:18:05Z</time>
      </trkpt>
      <trkpt lat="59.8354489" lon="17.6578756">
        <ele>7.82788</ele>
        <time>2012-05-30T19:18:10Z</time>
      </trkpt>
      <trkpt lat="59.8356041" lon="17.6578118">
        <ele>8.30859</ele>
        <time>2012-05-30T19:18:16Z</time>
      </trkpt>
      <trkpt lat="59.8357203" lon="17.6577967">
        <ele>8.78918</ele>
        <time>2012-05-30T19:18:21Z</time>
      </trkpt>
      <trkpt lat="59.8358575" lon="17.6578399">
        <ele>7.82788</ele>
        <time>2012-05-30T19:18:27Z</time>
      </trkpt>
      <trkpt lat="59.8359674" lon="17.6577833">
        <ele>7.34717</ele>
        <time>2012-05-30T19:18:32Z</time>
      </trkpt>
      <trkpt lat="59.8360697" lon="17.6577525">
        <ele>7.34717</ele>
        <time>2012-05-30T19:18:36Z</time>
      </trkpt>
      <trkpt lat="59.8362109" lon="17.6576788">
        <ele>8.30859</ele>
        <time>2012-05-30T19:18:42Z</time>
      </trkpt>
      <trkpt lat="59.8363756" lon="17.6575838">
        <ele>12.1538</ele>
        <time>2012-05-30T19:18:49Z</time>
      </trkpt>
      <trkpt lat="59.8364782" lon="17.6575678">
        <ele>11.1925</ele>
        <time>2012-05-30T19:18:54Z</time>
      </trkpt>
      <trkpt lat="59.8365589" lon="17.6575306">
        <ele>11.1925</ele>
        <time>2012-05-30T19:18:58Z</time>
      </trkpt>
      <trkpt lat="59.8366636" lon="17.65746">
        <ele>11.1925</ele>
        <time>2012-05-30T19:19:03Z</time>
      </trkpt>
      <trkpt lat="59.8367888" lon="17.6573842">
        <ele>10.7118</ele>
        <time>2012-05-30T19:19:09Z</time>
      </trkpt>
      <trkpt lat="59.8368566" lon="17.6573589">
        <ele>11.1925</ele>
        <time>2012-05-30T19:19:12Z</time>
      </trkpt>
      <trkpt lat="59.8369734" lon="17.6573133">
        <ele>9.2699</ele>
        <time>2012-05-30T19:19:18Z</time>
      </trkpt>
      <trkpt lat="59.8370641" lon="17.6572699">
        <ele>9.2699</ele>
        <time>2012-05-30T19:19:23Z</time>
      </trkpt>
      <trkpt lat="59.8372058" lon="17.6572221">
        <ele>7.82788</ele>
        <time>2012-05-30T19:19:29Z</time>
      </trkpt>
      <trkpt lat="59.8373209" lon="17.657127">
        <ele>8.30859</ele>
        <time>2012-05-30T19:19:34Z</time>
      </trkpt>
      <trkpt lat="59.8374204" lon="17.6571037">
        <ele>8.30859</ele>
        <time>2012-05-30T19:19:38Z</time>
      </trkpt>
      <trkpt lat="59.8375074" lon="17.6571244">
        <ele>8.78918</ele>
        <time>2012-05-30T19:19:42Z</time>
      </trkpt>
      <trkpt lat="59.8376095" lon="17.6571159">
        <ele>5.90527</ele>
        <time>2012-05-30T19:19:46Z</time>
      </trkpt>
      <trkpt lat="59.8377424" lon="17.6570504">
        <ele>6.38586</ele>
        <time>2012-05-30T19:19:52Z</time>
      </trkpt>
      <trkpt lat="59.8378787" lon="17.6570011">
        <ele>3.02124</ele>
        <time>2012-05-30T19:19:58Z</time>
      </trkpt>
      <trkpt lat="59.8379714" lon="17.6569484">
        <ele>3.98267</ele>
        <time>2012-05-30T19:20:02Z</time>
      </trkpt>
      <trkpt lat="59.8380934" lon="17.6569339">
        <ele>3.50195</ele>
        <time>2012-05-30T19:20:07Z</time>
      </trkpt>
      <trkpt lat="59.8382249" lon="17.6569082">
        <ele>3.02124</ele>
        <time>2012-05-30T19:20:12Z</time>
      </trkpt>
      <trkpt lat="59.8383348" lon="17.6568986">
        <ele>2.06006</ele>
        <time>2012-05-30T19:20:16Z</time>
      </trkpt>
      <trkpt lat="59.8384404" lon="17.6569082">
        <ele>2.06006</ele>
        <time>2012-05-30T19:20:20Z</time>
      </trkpt>
      <trkpt lat="59.8385565" lon="17.6568923">
        <ele>3.02124</ele>
        <time>2012-05-30T19:20:25Z</time>
      </trkpt>
      <trkpt lat="59.8386957" lon="17.6568812">
        <ele>3.50195</ele>
        <time>2012-05-30T19:20:31Z</time>
      </trkpt>
      <trkpt lat="59.8388054" lon="17.6568414">
        <ele>5.42456</ele>
        <time>2012-05-30T19:20:36Z</time>
      </trkpt>
      <trkpt lat="59.8389003" lon="17.6568285">
        <ele>6.38586</ele>
        <time>2012-05-30T19:20:40Z</time>
      </trkpt>
      <trkpt lat="59.839051" lon="17.65684">
        <ele>6.86646</ele>
        <time>2012-05-30T19:20:45Z</time>
      </trkpt>
      <trkpt lat="59.8391677" lon="17.6568227">
        <ele>4.94385</ele>
        <time>2012-05-30T19:20:50Z</time>
      </trkpt>
      <trkpt lat="59.8392847" lon="17.6568212">
        <ele>3.50195</ele>
        <time>2012-05-30T19:20:55Z</time>
      </trkpt>
      <trkpt lat="59.839404" lon="17.6568025">
        <ele>0</ele>
        <time>2012-05-30T19:21:00Z</time>
      </trkpt>
      <trkpt lat="59.8395049" lon="17.6567647">
        <ele>0</ele>
        <time>2012-05-30T19:21:05Z</time>
      </trkpt>
      <trkpt lat="59.8395673" lon="17.6567429">
        <ele>0</ele>
        <time>2012-05-30T19:21:08Z</time>
      </trkpt>
      <trkpt lat="59.839594" lon="17.6567488">
        <ele>0</ele>
        <time>2012-05-30T19:21:10Z</time>
      </trkpt>
      <trkpt lat="59.8396785" lon="17.6567663">
        <ele>0</ele>
        <time>2012-05-30T19:21:15Z</time>
      </trkpt>
      <trkpt lat="59.8398059" lon="17.6567789">
        <ele>0</ele>
        <time>2012-05-30T19:21:21Z</time>
      </trkpt>
      <trkpt lat="59.8399587" lon="17.6567944">
        <ele>0.618042</ele>
        <time>2012-05-30T19:21:27Z</time>
      </trkpt>
      <trkpt lat="59.8400659" lon="17.6567762">
        <ele>1.57935</ele>
        <time>2012-05-30T19:21:31Z</time>
      </trkpt>
      <trkpt lat="59.8401871" lon="17.6567652">
        <ele>3.50195</ele>
        <time>2012-05-30T19:21:35Z</time>
      </trkpt>
      <trkpt lat="59.8403255" lon="17.6567715">
        <ele>3.98267</ele>
        <time>2012-05-30T19:21:40Z</time>
      </trkpt>
      <trkpt lat="59.8404794" lon="17.6567712">
        <ele>3.98267</ele>
        <time>2012-05-30T19:21:45Z</time>
      </trkpt>
      <trkpt lat="59.8405994" lon="17.6568183">
        <ele>3.50195</ele>
        <time>2012-05-30T19:21:50Z</time>
      </trkpt>
      <trkpt lat="59.8406778" lon="17.6567752">
        <ele>5.42456</ele>
        <time>2012-05-30T19:21:54Z</time>
      </trkpt>
      <trkpt lat="59.8407828" lon="17.656736">
        <ele>4.46326</ele>
        <time>2012-05-30T19:21:59Z</time>
      </trkpt>
      <trkpt lat="59.8408026" lon="17.6567338">
        <ele>4.46326</ele>
        <time>2012-05-30T19:22:00Z</time>
      </trkpt>
      <trkpt lat="59.8409294" lon="17.6567353">
        <ele>4.94385</ele>
        <time>2012-05-30T19:22:06Z</time>
      </trkpt>
      <trkpt lat="59.8410583" lon="17.6566301">
        <ele>5.90527</ele>
        <time>2012-05-30T19:22:11Z</time>
      </trkpt>
      <trkpt lat="59.8411505" lon="17.6565451">
        <ele>7.34717</ele>
        <time>2012-05-30T19:22:15Z</time>
      </trkpt>
      <trkpt lat="59.8412812" lon="17.6564">
        <ele>10.2312</ele>
        <time>2012-05-30T19:22:21Z</time>
      </trkpt>
      <trkpt lat="59.8413035" lon="17.6563752">
        <ele>11.1925</ele>
        <time>2012-05-30T19:22:22Z</time>
      </trkpt>
      <trkpt lat="59.8413992" lon="17.6562551">
        <ele>10.2312</ele>
        <time>2012-05-30T19:22:27Z</time>
      </trkpt>
      <trkpt lat="59.8414744" lon="17.6561346">
        <ele>12.1538</ele>
        <time>2012-05-30T19:22:31Z</time>
      </trkpt>
      <trkpt lat="59.8415607" lon="17.6559963">
        <ele>13.1151</ele>
        <time>2012-05-30T19:22:35Z</time>
      </trkpt>
      <trkpt lat="59.8416361" lon="17.6558867">
        <ele>11.6732</ele>
        <time>2012-05-30T19:22:39Z</time>
      </trkpt>
      <trkpt lat="59.8417664" lon="17.6556802">
        <ele>10.2312</ele>
        <time>2012-05-30T19:22:45Z</time>
      </trkpt>
      <trkpt lat="59.8418407" lon="17.6555636">
        <ele>11.1925</ele>
        <time>2012-05-30T19:22:49Z</time>
      </trkpt>
      <trkpt lat="59.8419373" lon="17.655416">
        <ele>9.75061</ele>
        <time>2012-05-30T19:22:54Z</time>
      </trkpt>
      <trkpt lat="59.8420572" lon="17.6552545">
        <ele>9.75061</ele>
        <time>2012-05-30T19:23:00Z</time>
      </trkpt>
      <trkpt lat="59.8421504" lon="17.6551135">
        <ele>10.2312</ele>
        <time>2012-05-30T19:23:05Z</time>
      </trkpt>
      <trkpt lat="59.8422737" lon="17.6549922">
        <ele>8.30859</ele>
        <time>2012-05-30T19:23:11Z</time>
      </trkpt>
      <trkpt lat="59.8423934" lon="17.6548518">
        <ele>8.30859</ele>
        <time>2012-05-30T19:23:17Z</time>
      </trkpt>
      <trkpt lat="59.8424916" lon="17.6546892">
        <ele>8.30859</ele>
        <time>2012-05-30T19:23:22Z</time>
      </trkpt>
      <trkpt lat="59.8426331" lon="17.654511">
        <ele>6.86646</ele>
        <time>2012-05-30T19:23:29Z</time>
      </trkpt>
      <trkpt lat="59.8427366" lon="17.6543775">
        <ele>6.86646</ele>
        <time>2012-05-30T19:23:34Z</time>
      </trkpt>
      <trkpt lat="59.8428013" lon="17.6543136">
        <ele>6.86646</ele>
        <time>2012-05-30T19:23:37Z</time>
      </trkpt>
      <trkpt lat="59.8428953" lon="17.654165">
        <ele>6.86646</ele>
        <time>2012-05-30T19:23:42Z</time>
      </trkpt>
      <trkpt lat="59.8430126" lon="17.6540522">
        <ele>9.75061</ele>
        <time>2012-05-30T19:23:47Z</time>
      </trkpt>
      <trkpt lat="59.8430826" lon="17.6540029">
        <ele>11.6732</ele>
        <time>2012-05-30T19:23:50Z</time>
      </trkpt>
      <trkpt lat="59.8432352" lon="17.653854">
        <ele>15.999</ele>
        <time>2012-05-30T19:23:56Z</time>
      </trkpt>
      <trkpt lat="59.8433273" lon="17.6537556">
        <ele>18.8831</ele>
        <time>2012-05-30T19:24:00Z</time>
      </trkpt>
      <trkpt lat="59.8434418" lon="17.6536364">
        <ele>28.0155</ele>
        <time>2012-05-30T19:24:05Z</time>
      </trkpt>
      <trkpt lat="59.8435395" lon="17.6535608">
        <ele>30.4188</ele>
        <time>2012-05-30T19:24:09Z</time>
      </trkpt>
      <trkpt lat="59.8436314" lon="17.6534636">
        <ele>32.3416</ele>
        <time>2012-05-30T19:24:13Z</time>
      </trkpt>
      <trkpt lat="59.8437597" lon="17.6532605">
        <ele>35.2255</ele>
        <time>2012-05-30T19:24:19Z</time>
      </trkpt>
      <trkpt lat="59.8438604" lon="17.6531327">
        <ele>37.6287</ele>
        <time>2012-05-30T19:24:23Z</time>
      </trkpt>
      <trkpt lat="59.8439701" lon="17.6530075">
        <ele>39.5513</ele>
        <time>2012-05-30T19:24:28Z</time>
      </trkpt>
      <trkpt lat="59.8440578" lon="17.6528739">
        <ele>43.3966</ele>
        <time>2012-05-30T19:24:32Z</time>
      </trkpt>
      <trkpt lat="59.8441559" lon="17.6527727">
        <ele>43.3966</ele>
        <time>2012-05-30T19:24:36Z</time>
      </trkpt>
      <trkpt lat="59.8441929" lon="17.6527318">
        <ele>41.9547</ele>
        <time>2012-05-30T19:24:38Z</time>
      </trkpt>
      <trkpt lat="59.8442519" lon="17.6526439">
        <ele>34.7449</ele>
        <time>2012-05-30T19:24:42Z</time>
      </trkpt>
      <trkpt lat="59.8442679" lon="17.6526182">
        <ele>34.7449</ele>
        <time>2012-05-30T19:24:43Z</time>
      </trkpt>
      <trkpt lat="59.8444004" lon="17.6524949">
        <ele>30.4188</ele>
        <time>2012-05-30T19:24:49Z</time>
      </trkpt>
      <trkpt lat="59.8444709" lon="17.6524348">
        <ele>27.5349</ele>
        <time>2012-05-30T19:24:52Z</time>
      </trkpt>
      <trkpt lat="59.8445573" lon="17.6523193">
        <ele>23.6896</ele>
        <time>2012-05-30T19:24:57Z</time>
      </trkpt>
      <trkpt lat="59.8446149" lon="17.6521825">
        <ele>18.4023</ele>
        <time>2012-05-30T19:25:02Z</time>
      </trkpt>
      <trkpt lat="59.8446724" lon="17.6520765">
        <ele>15.5184</ele>
        <time>2012-05-30T19:25:06Z</time>
      </trkpt>
      <trkpt lat="59.8447403" lon="17.6519514">
        <ele>15.0377</ele>
        <time>2012-05-30T19:25:10Z</time>
      </trkpt>
      <trkpt lat="59.8448418" lon="17.6518359">
        <ele>13.1151</ele>
        <time>2012-05-30T19:25:15Z</time>
      </trkpt>
      <trkpt lat="59.8448724" lon="17.6517935">
        <ele>12.1538</ele>
        <time>2012-05-30T19:25:17Z</time>
      </trkpt>
      <trkpt lat="59.8449428" lon="17.651632">
        <ele>9.75061</ele>
        <time>2012-05-30T19:25:22Z</time>
      </trkpt>
      <trkpt lat="59.845014" lon="17.6515268">
        <ele>8.78918</ele>
        <time>2012-05-30T19:25:26Z</time>
      </trkpt>
      <trkpt lat="59.8450859" lon="17.6514465">
        <ele>8.78918</ele>
        <time>2012-05-30T19:25:29Z</time>
      </trkpt>
      <trkpt lat="59.8452072" lon="17.6512911">
        <ele>11.6732</ele>
        <time>2012-05-30T19:25:34Z</time>
      </trkpt>
      <trkpt lat="59.8453672" lon="17.6511174">
        <ele>14.0764</ele>
        <time>2012-05-30T19:25:40Z</time>
      </trkpt>
      <trkpt lat="59.8454615" lon="17.6510208">
        <ele>15.5184</ele>
        <time>2012-05-30T19:25:44Z</time>
      </trkpt>
      <trkpt lat="59.8455525" lon="17.65087">
        <ele>17.4412</ele>
        <time>2012-05-30T19:25:48Z</time>
      </trkpt>
      <trkpt lat="59.8456526" lon="17.6508067">
        <ele>14.557</ele>
        <time>2012-05-30T19:25:54Z</time>
      </trkpt>
      <trkpt lat="59.8457447" lon="17.6506832">
        <ele>7.34717</ele>
        <time>2012-05-30T19:26:00Z</time>
      </trkpt>
      <trkpt lat="59.8458662" lon="17.6505515">
        <ele>8.78918</ele>
        <time>2012-05-30T19:26:05Z</time>
      </trkpt>
      <trkpt lat="59.8459401" lon="17.6504957">
        <ele>6.38586</ele>
        <time>2012-05-30T19:26:08Z</time>
      </trkpt>
      <trkpt lat="59.8460348" lon="17.6504203">
        <ele>4.46326</ele>
        <time>2012-05-30T19:26:13Z</time>
      </trkpt>
      <trkpt lat="59.8461507" lon="17.6503078">
        <ele>5.42456</ele>
        <time>2012-05-30T19:26:18Z</time>
      </trkpt>
      <trkpt lat="59.8462685" lon="17.6501731">
        <ele>8.30859</ele>
        <time>2012-05-30T19:26:23Z</time>
      </trkpt>
      <trkpt lat="59.8463954" lon="17.6500338">
        <ele>12.6344</ele>
        <time>2012-05-30T19:26:29Z</time>
      </trkpt>
      <trkpt lat="59.8464861" lon="17.6499364">
        <ele>15.5184</ele>
        <time>2012-05-30T19:26:33Z</time>
      </trkpt>
      <trkpt lat="59.8465738" lon="17.6498102">
        <ele>13.1151</ele>
        <time>2012-05-30T19:26:38Z</time>
      </trkpt>
      <trkpt lat="59.8466239" lon="17.6497587">
        <ele>12.1538</ele>
        <time>2012-05-30T19:26:41Z</time>
      </trkpt>
      <trkpt lat="59.846744" lon="17.6496081">
        <ele>15.0377</ele>
        <time>2012-05-30T19:26:46Z</time>
      </trkpt>
      <trkpt lat="59.846844" lon="17.6494955">
        <ele>17.4412</ele>
        <time>2012-05-30T19:26:50Z</time>
      </trkpt>
      <trkpt lat="59.8469783" lon="17.6493817">
        <ele>16.9604</ele>
        <time>2012-05-30T19:26:56Z</time>
      </trkpt>
      <trkpt lat="59.8470438" lon="17.6493402">
        <ele>17.4412</ele>
        <time>2012-05-30T19:26:59Z</time>
      </trkpt>
      <trkpt lat="59.8471443" lon="17.6492724">
        <ele>18.8831</ele>
        <time>2012-05-30T19:27:03Z</time>
      </trkpt>
      <trkpt lat="59.8471886" lon="17.6492157">
        <ele>18.4023</ele>
        <time>2012-05-30T19:27:05Z</time>
      </trkpt>
      <trkpt lat="59.8473158" lon="17.6491269">
        <ele>19.8444</ele>
        <time>2012-05-30T19:27:10Z</time>
      </trkpt>
      <trkpt lat="59.8474387" lon="17.6489669">
        <ele>20.8057</ele>
        <time>2012-05-30T19:27:15Z</time>
      </trkpt>
      <trkpt lat="59.8475413" lon="17.6488456">
        <ele>20.8057</ele>
        <time>2012-05-30T19:27:20Z</time>
      </trkpt>
      <trkpt lat="59.847634" lon="17.6487382">
        <ele>18.8831</ele>
        <time>2012-05-30T19:27:25Z</time>
      </trkpt>
      <trkpt lat="59.8477132" lon="17.648648">
        <ele>16.9604</ele>
        <time>2012-05-30T19:27:30Z</time>
      </trkpt>
      <trkpt lat="59.8478446" lon="17.648574">
        <ele>19.8444</ele>
        <time>2012-05-30T19:27:35Z</time>
      </trkpt>
      <trkpt lat="59.8478671" lon="17.6485523">
        <ele>21.767</ele>
        <time>2012-05-30T19:27:36Z</time>
      </trkpt>
      <trkpt lat="59.8479772" lon="17.648442">
        <ele>15.999</ele>
        <time>2012-05-30T19:27:42Z</time>
      </trkpt>
      <trkpt lat="59.8480589" lon="17.6484206">
        <ele>14.557</ele>
        <time>2012-05-30T19:27:46Z</time>
      </trkpt>
      <trkpt lat="59.8481679" lon="17.6483836">
        <ele>13.1151</ele>
        <time>2012-05-30T19:27:51Z</time>
      </trkpt>
      <trkpt lat="59.848285" lon="17.6483197">
        <ele>13.1151</ele>
        <time>2012-05-30T19:27:56Z</time>
      </trkpt>
      <trkpt lat="59.8483385" lon="17.6483032">
        <ele>14.557</ele>
        <time>2012-05-30T19:27:58Z</time>
      </trkpt>
      <trkpt lat="59.8484614" lon="17.6481787">
        <ele>14.0764</ele>
        <time>2012-05-30T19:28:04Z</time>
      </trkpt>
      <trkpt lat="59.8485541" lon="17.648087">
        <ele>13.1151</ele>
        <time>2012-05-30T19:28:08Z</time>
      </trkpt>
      <trkpt lat="59.8486824" lon="17.6479318">
        <ele>13.5958</ele>
        <time>2012-05-30T19:28:14Z</time>
      </trkpt>
      <trkpt lat="59.84877" lon="17.6478064">
        <ele>15.999</ele>
        <time>2012-05-30T19:28:19Z</time>
      </trkpt>
      <trkpt lat="59.8488513" lon="17.6477277">
        <ele>15.5184</ele>
        <time>2012-05-30T19:28:23Z</time>
      </trkpt>
      <trkpt lat="59.848969" lon="17.6475738">
        <ele>14.557</ele>
        <time>2012-05-30T19:28:28Z</time>
      </trkpt>
      <trkpt lat="59.8491047" lon="17.6474087">
        <ele>16.4797</ele>
        <time>2012-05-30T19:28:33Z</time>
      </trkpt>
      <trkpt lat="59.8491811" lon="17.6472486">
        <ele>14.557</ele>
        <time>2012-05-30T19:28:37Z</time>
      </trkpt>
      <trkpt lat="59.8492688" lon="17.6471703">
        <ele>14.557</ele>
        <time>2012-05-30T19:28:41Z</time>
      </trkpt>
      <trkpt lat="59.8493484" lon="17.6470558">
        <ele>15.5184</ele>
        <time>2012-05-30T19:28:46Z</time>
      </trkpt>
      <trkpt lat="59.8494899" lon="17.6469484">
        <ele>16.9604</ele>
        <time>2012-05-30T19:28:52Z</time>
      </trkpt>
      <trkpt lat="59.8495957" lon="17.6468468">
        <ele>15.999</ele>
        <time>2012-05-30T19:28:56Z</time>
      </trkpt>
      <trkpt lat="59.849675" lon="17.6467367">
        <ele>14.0764</ele>
        <time>2012-05-30T19:29:01Z</time>
      </trkpt>
      <trkpt lat="59.8497475" lon="17.6466698">
        <ele>13.5958</ele>
        <time>2012-05-30T19:29:05Z</time>
      </trkpt>
      <trkpt lat="59.8498734" lon="17.6465161">
        <ele>12.1538</ele>
        <time>2012-05-30T19:29:11Z</time>
      </trkpt>
      <trkpt lat="59.8499956" lon="17.6463854">
        <ele>10.7118</ele>
        <time>2012-05-30T19:29:16Z</time>
      </trkpt>
      <trkpt lat="59.8500729" lon="17.6463415">
        <ele>8.30859</ele>
        <time>2012-05-30T19:29:19Z</time>
      </trkpt>
      <trkpt lat="59.850177" lon="17.6462639">
        <ele>8.30859</ele>
        <time>2012-05-30T19:29:24Z</time>
      </trkpt>
      <trkpt lat="59.8502641" lon="17.6461808">
        <ele>10.7118</ele>
        <time>2012-05-30T19:29:28Z</time>
      </trkpt>
      <trkpt lat="59.8503365" lon="17.6461154">
        <ele>12.1538</ele>
        <time>2012-05-30T19:29:32Z</time>
      </trkpt>
      <trkpt lat="59.8504362" lon="17.6459991">
        <ele>8.78918</ele>
        <time>2012-05-30T19:29:38Z</time>
      </trkpt>
      <trkpt lat="59.8505587" lon="17.6458969">
        <ele>8.30859</ele>
        <time>2012-05-30T19:29:43Z</time>
      </trkpt>
      <trkpt lat="59.850668" lon="17.6457911">
        <ele>7.82788</ele>
        <time>2012-05-30T19:29:48Z</time>
      </trkpt>
      <trkpt lat="59.8507777" lon="17.645653">
        <ele>12.6344</ele>
        <time>2012-05-30T19:29:52Z</time>
      </trkpt>
      <trkpt lat="59.8508135" lon="17.645582">
        <ele>13.5958</ele>
        <time>2012-05-30T19:29:54Z</time>
      </trkpt>
      <trkpt lat="59.850819" lon="17.6453776">
        <ele>12.1538</ele>
        <time>2012-05-30T19:29:59Z</time>
      </trkpt>
      <trkpt lat="59.8508191" lon="17.6452194">
        <ele>11.1925</ele>
        <time>2012-05-30T19:30:02Z</time>
      </trkpt>
      <trkpt lat="59.8508076" lon="17.6451471">
        <ele>10.2312</ele>
        <time>2012-05-30T19:30:04Z</time>
      </trkpt>
      <trkpt lat="59.8507461" lon="17.644918">
        <ele>10.7118</ele>
        <time>2012-05-30T19:30:10Z</time>
      </trkpt>
      <trkpt lat="59.8507068" lon="17.6447512">
        <ele>13.1151</ele>
        <time>2012-05-30T19:30:15Z</time>
      </trkpt>
      <trkpt lat="59.8506634" lon="17.6445829">
        <ele>14.557</ele>
        <time>2012-05-30T19:30:20Z</time>
      </trkpt>
      <trkpt lat="59.8505731" lon="17.644401">
        <ele>15.5184</ele>
        <time>2012-05-30T19:30:24Z</time>
      </trkpt>
      <trkpt lat="59.8505145" lon="17.6442824">
        <ele>14.0764</ele>
        <time>2012-05-30T19:30:27Z</time>
      </trkpt>
      <trkpt lat="59.8504523" lon="17.6440969">
        <ele>15.0377</ele>
        <time>2012-05-30T19:30:32Z</time>
      </trkpt>
      <trkpt lat="59.8503879" lon="17.6439312">
        <ele>15.5184</ele>
        <time>2012-05-30T19:30:36Z</time>
      </trkpt>
      <trkpt lat="59.8503271" lon="17.6437716">
        <ele>15.999</ele>
        <time>2012-05-30T19:30:40Z</time>
      </trkpt>
      <trkpt lat="59.8502913" lon="17.6436758">
        <ele>16.4797</ele>
        <time>2012-05-30T19:30:43Z</time>
      </trkpt>
      <trkpt lat="59.8502421" lon="17.6435989">
        <ele>16.4797</ele>
        <time>2012-05-30T19:30:46Z</time>
      </trkpt>
      <trkpt lat="59.8501184" lon="17.6436538">
        <ele>18.8831</ele>
        <time>2012-05-30T19:30:52Z</time>
      </trkpt>
      <trkpt lat="59.8499828" lon="17.6437636">
        <ele>19.3638</ele>
        <time>2012-05-30T19:30:57Z</time>
      </trkpt>
      <trkpt lat="59.8499204" lon="17.643786">
        <ele>18.8831</ele>
        <time>2012-05-30T19:30:59Z</time>
      </trkpt>
      <trkpt lat="59.8497838" lon="17.6438471">
        <ele>19.8444</ele>
        <time>2012-05-30T19:31:05Z</time>
      </trkpt>
      <trkpt lat="59.849719" lon="17.6438969">
        <ele>19.8444</ele>
        <time>2012-05-30T19:31:08Z</time>
      </trkpt>
      <trkpt lat="59.8496038" lon="17.6440292">
        <ele>18.4023</ele>
        <time>2012-05-30T19:31:12Z</time>
      </trkpt>
      <trkpt lat="59.8495489" lon="17.6440758">
        <ele>17.9218</ele>
        <time>2012-05-30T19:31:14Z</time>
      </trkpt>
      <trkpt lat="59.8494574" lon="17.6441882">
        <ele>15.999</ele>
        <time>2012-05-30T19:31:20Z</time>
      </trkpt>
      <trkpt lat="59.8493954" lon="17.644217">
        <ele>15.0377</ele>
        <time>2012-05-30T19:31:24Z</time>
      </trkpt>
      <trkpt lat="59.8493059" lon="17.6443223">
        <ele>14.0764</ele>
        <time>2012-05-30T19:31:29Z</time>
      </trkpt>
      <trkpt lat="59.8491933" lon="17.6444277">
        <ele>13.1151</ele>
        <time>2012-05-30T19:31:34Z</time>
      </trkpt>
      <trkpt lat="59.849157" lon="17.6444602">
        <ele>11.1925</ele>
        <time>2012-05-30T19:31:36Z</time>
      </trkpt>
      <trkpt lat="59.849047" lon="17.6445415">
        <ele>9.2699</ele>
        <time>2012-05-30T19:31:41Z</time>
      </trkpt>
      <trkpt lat="59.8489462" lon="17.6446419">
        <ele>6.38586</ele>
        <time>2012-05-30T19:31:46Z</time>
      </trkpt>
      <trkpt lat="59.8488805" lon="17.6446867">
        <ele>5.42456</ele>
        <time>2012-05-30T19:31:49Z</time>
      </trkpt>
      <trkpt lat="59.8488482" lon="17.6446969">
        <ele>5.90527</ele>
        <time>2012-05-30T19:31:52Z</time>
      </trkpt>
      <trkpt lat="59.8488173" lon="17.6448013">
        <ele>4.46326</ele>
        <time>2012-05-30T19:31:57Z</time>
      </trkpt>
      <trkpt lat="59.8489057" lon="17.6448827">
        <ele>8.30859</ele>
        <time>2012-05-30T19:32:01Z</time>
      </trkpt>
      <trkpt lat="59.8489869" lon="17.6450874">
        <ele>9.2699</ele>
        <time>2012-05-30T19:32:06Z</time>
      </trkpt>
      <trkpt lat="59.8490197" lon="17.6450514">
        <ele>8.78918</ele>
        <time>2012-05-30T19:32:09Z</time>
      </trkpt>
      <trkpt lat="59.8491539" lon="17.6448594">
        <ele>11.6732</ele>
        <time>2012-05-30T19:32:15Z</time>
      </trkpt>
      <trkpt lat="59.8492704" lon="17.6447059">
        <ele>13.1151</ele>
        <time>2012-05-30T19:32:20Z</time>
      </trkpt>
      <trkpt lat="59.849365" lon="17.6445712">
        <ele>15.0377</ele>
        <time>2012-05-30T19:32:24Z</time>
      </trkpt>
      <trkpt lat="59.8494455" lon="17.6444505">
        <ele>16.4797</ele>
        <time>2012-05-30T19:32:28Z</time>
      </trkpt>
      <trkpt lat="59.8495333" lon="17.6443535">
        <ele>18.8831</ele>
        <time>2012-05-30T19:32:32Z</time>
      </trkpt>
      <trkpt lat="59.849631" lon="17.6442827">
        <ele>17.4412</ele>
        <time>2012-05-30T19:32:36Z</time>
      </trkpt>
      <trkpt lat="59.8497504" lon="17.6441617">
        <ele>15.0377</ele>
        <time>2012-05-30T19:32:41Z</time>
      </trkpt>
      <trkpt lat="59.8498582" lon="17.6440602">
        <ele>16.4797</ele>
        <time>2012-05-30T19:32:45Z</time>
      </trkpt>
      <trkpt lat="59.8499605" lon="17.6440425">
        <ele>17.9218</ele>
        <time>2012-05-30T19:32:49Z</time>
      </trkpt>
      <trkpt lat="59.8500759" lon="17.6440874">
        <ele>21.2864</ele>
        <time>2012-05-30T19:32:53Z</time>
      </trkpt>
      <trkpt lat="59.8501677" lon="17.6441957">
        <ele>18.4023</ele>
        <time>2012-05-30T19:32:58Z</time>
      </trkpt>
      <trkpt lat="59.8501866" lon="17.6442244">
        <ele>17.9218</ele>
        <time>2012-05-30T19:32:59Z</time>
      </trkpt>
      <trkpt lat="59.8502474" lon="17.6444497">
        <ele>13.5958</ele>
        <time>2012-05-30T19:33:04Z</time>
      </trkpt>
      <trkpt lat="59.8502772" lon="17.644594">
        <ele>10.2312</ele>
        <time>2012-05-30T19:33:07Z</time>
      </trkpt>
      <trkpt lat="59.8502788" lon="17.6449076">
        <ele>4.94385</ele>
        <time>2012-05-30T19:33:13Z</time>
      </trkpt>
      <trkpt lat="59.850248" lon="17.6451304">
        <ele>1.09863</ele>
        <time>2012-05-30T19:33:18Z</time>
      </trkpt>
      <trkpt lat="59.8501926" lon="17.6453023">
        <ele>0</ele>
        <time>2012-05-30T19:33:22Z</time>
      </trkpt>
      <trkpt lat="59.8501664" lon="17.6453391">
        <ele>0</ele>
        <time>2012-05-30T19:33:23Z</time>
      </trkpt>
      <trkpt lat="59.8500567" lon="17.6454268">
        <ele>1.57935</ele>
        <time>2012-05-30T19:33:28Z</time>
      </trkpt>
      <trkpt lat="59.8500283" lon="17.6454603">
        <ele>1.57935</ele>
        <time>2012-05-30T19:33:29Z</time>
      </trkpt>
      <trkpt lat="59.8498491" lon="17.6456946">
        <ele>6.38586</ele>
        <time>2012-05-30T19:33:36Z</time>
      </trkpt>
      <trkpt lat="59.8497701" lon="17.6458127">
        <ele>9.2699</ele>
        <time>2012-05-30T19:33:40Z</time>
      </trkpt>
    </trkseg>
  </trk>
</gpx>